Time;durP1;ratioP1;P1;durP2;ratioP2;P2;SDS_P1;SDS_P2;PMS_P1;PMS_P2;Temp;Humidity;BMP_temperature;BMP_pressure;BME280_temperature;BME280_humidity;BME280_pressure;Samples;Min_cycle;Max_cycle;Signal;HPM_P1;HPM_P2
2023/12/20 00:01:06;;;;;;;12.32;4.35;;;;;;;5.86;100.00;101525.06;5099470;28;20474;-57
2023/12/20 00:03:32;;;;;;;14.75;4.32;;;;;;;5.81;100.00;101529.63;5100430;28;20497;-57
2023/12/20 00:05:59;;;;;;;15.73;4.28;;;;;;;5.78;100.00;101530.59;5099055;28;20024;-57
2023/12/20 00:08:25;;;;;;;14.90;4.72;;;;;;;5.80;100.00;101527.91;5098618;28;20431;-57
2023/12/20 00:10:50;;;;;;;19.33;5.00;;;;;;;5.69;100.00;101534.38;5099324;28;20023;-57
2023/12/20 00:13:15;;;;;;;16.17;3.88;;;;;;;5.65;100.00;101532.75;5118176;27;20023;-57
2023/12/20 00:15:41;;;;;;;8.32;3.78;;;;;;;5.65;100.00;101538.03;5117725;28;20024;-57
2023/12/20 00:18:06;;;;;;;5.60;3.53;;;;;;;5.52;100.00;101522.63;5118060;28;20394;-57
2023/12/20 00:20:34;;;;;;;8.95;3.90;;;;;;;5.55;100.00;101538.38;5099044;28;20028;-58
2023/12/20 00:23:00;;;;;;;21.15;5.50;;;;;;;5.51;100.00;101550.81;5098720;28;20458;-57
2023/12/20 00:25:25;;;;;;;13.68;4.10;;;;;;;5.52;100.00;101543.75;5118684;27;20101;-58
2023/12/20 00:27:51;;;;;;;16.48;4.82;;;;;;;5.51;100.00;101542.88;5099095;28;20470;-57
2023/12/20 00:30:16;;;;;;;13.10;4.35;;;;;;;5.46;100.00;101537.72;5099428;28;20060;-57
2023/12/20 00:32:46;;;;;;;14.90;4.65;;;;;;;5.51;100.00;101534.09;5098906;28;20028;-57
2023/12/20 00:35:15;;;;;;;10.13;3.80;;;;;;;5.51;100.00;101532.34;5099063;28;20063;-57
2023/12/20 00:37:43;;;;;;;12.60;3.42;;;;;;;5.38;100.00;101521.31;5116920;28;20510;-57
2023/12/20 00:40:09;;;;;;;12.15;4.13;;;;;;;5.47;100.00;101538.59;5098809;28;20128;-57
2023/12/20 00:42:35;;;;;;;10.98;4.03;;;;;;;5.47;100.00;101533.31;5117535;28;20027;-57
2023/12/20 00:45:02;;;;;;;10.63;4.25;;;;;;;5.41;100.00;101528.22;5099104;28;20542;-57
2023/12/20 00:47:27;;;;;;;11.50;3.58;;;;;;;5.38;100.00;101525.69;5116926;28;20128;-57
2023/12/20 00:49:52;;;;;;;21.35;4.22;;;;;;;5.35;100.00;101526.66;5118360;27;20496;-57
2023/12/20 00:52:18;;;;;;;13.32;3.72;;;;;;;5.29;100.00;101520.69;5113199;28;20026;-57
2023/12/20 00:54:44;;;;;;;8.32;3.63;;;;;;;5.30;100.00;101528.56;5113062;28;20474;-57
2023/12/20 00:57:10;;;;;;;14.07;3.80;;;;;;;5.29;100.00;101521.56;5113646;28;20036;-57
2023/12/20 00:59:35;;;;;;;18.05;3.28;;;;;;;5.32;100.00;101520.59;5095502;28;20027;-57
2023/12/20 01:02:01;;;;;;;14.13;3.58;;;;;;;5.28;100.00;101511.94;5094123;28;20027;-57
2023/12/20 01:04:26;;;;;;;11.57;3.58;;;;;;;5.26;100.00;101521.66;5107851;28;20023;-57
2023/12/20 01:06:52;;;;;;;13.85;3.75;;;;;;;5.26;100.00;101523.44;5113611;28;20502;-57
2023/12/20 01:09:18;;;;;;;5.88;3.47;;;;;;;5.14;100.00;101508.84;5112944;28;20019;-57
2023/12/20 01:11:43;;;;;;;16.00;4.20;;;;;;;5.24;100.00;101520.84;5114339;28;20032;-57
2023/12/20 01:14:09;;;;;;;15.02;3.65;;;;;;;5.20;100.00;101527.09;5113578;28;20023;-57
2023/12/20 01:16:35;;;;;;;9.93;3.92;;;;;;;5.16;100.00;101526.34;5095400;28;20023;-57
2023/12/20 01:19:00;;;;;;;7.13;3.85;;;;;;;5.18;100.00;101527.16;5113710;28;20020;-57
2023/12/20 01:21:25;;;;;;;5.45;3.17;;;;;;;5.24;100.00;101534.03;5113913;28;20106;-57
2023/12/20 01:23:53;;;;;;;10.02;4.25;;;;;;;5.11;100.00;101525.59;5074504;28;20020;-58
2023/12/20 01:26:18;;;;;;;17.02;3.80;;;;;;;5.16;100.00;101531.63;5095525;28;20029;-58
2023/12/20 01:28:44;;;;;;;9.02;3.58;;;;;;;5.17;100.00;101532.47;5114535;27;20051;-58
2023/12/20 01:31:09;;;;;;;6.30;3.45;;;;;;;5.23;100.00;101545.47;5116274;27;20028;-58
2023/12/20 01:33:40;;;;;;;14.60;4.05;;;;;;;5.17;100.00;101540.38;5096227;27;20450;-58
2023/12/20 01:36:05;;;;;;;17.20;4.65;;;;;;;5.21;100.00;101532.34;5095430;28;20051;-57
2023/12/20 01:38:30;;;;;;;12.43;3.95;;;;;;;5.11;100.00;101532.66;5113926;27;20031;-58
2023/12/20 01:40:56;;;;;;;10.38;4.15;;;;;;;5.03;100.00;101524.09;5095238;27;20027;-58
2023/12/20 01:43:21;;;;;;;13.38;3.47;;;;;;;5.10;100.00;101538.84;5096664;27;20043;-59
2023/12/20 01:45:47;;;;;;;17.92;4.00;;;;;;;5.12;100.00;101531.78;5113030;28;20094;-58
2023/12/20 01:48:14;;;;;;;12.38;3.67;;;;;;;5.04;100.00;101520.56;5094539;28;20039;-58
2023/12/20 01:50:40;;;;;;;8.88;3.80;;;;;;;5.12;100.00;101531.78;5094708;28;20033;-58
2023/12/20 01:53:08;;;;;;;11.70;4.20;;;;;;;5.06;100.00;101531.91;5094025;28;20028;-58
2023/12/20 01:55:36;;;;;;;14.77;5.53;;;;;;;5.07;100.00;101531.03;5094249;28;20047;-58
2023/12/20 01:58:04;;;;;;;10.50;3.70;;;;;;;4.98;100.00;101525.13;5094364;28;20077;-58
2023/12/20 02:00:30;;;;;;;15.27;4.53;;;;;;;5.06;100.00;101535.44;5112842;28;21624;-58
2023/12/20 02:03:00;;;;;;;8.57;3.30;;;;;;;5.09;100.00;101527.44;5075208;28;20016;-58
2023/12/20 02:05:27;;;;;;;18.45;4.82;;;;;;;5.07;100.00;101523.97;5112789;27;20027;-58
2023/12/20 02:07:53;;;;;;;15.07;3.90;;;;;;;5.02;100.00;101517.97;5113794;27;20026;-58
2023/12/20 02:10:18;;;;;;;17.17;3.90;;;;;;;5.00;100.00;101527.72;5114691;27;20411;-58
2023/12/20 02:12:44;;;;;;;14.40;4.18;;;;;;;4.91;100.00;101522.69;5113272;27;20015;-58
2023/12/20 02:15:09;;;;;;;22.95;4.90;;;;;;;4.95;100.00;101525.19;5095309;28;20027;-58
2023/12/20 02:17:36;;;;;;;14.40;4.20;;;;;;;4.98;100.00;101537.44;5113852;27;20026;-58
2023/12/20 02:20:02;;;;;;;9.68;3.70;;;;;;;4.95;100.00;101532.25;5111959;27;20039;-58
2023/12/20 02:22:27;;;;;;;9.32;4.13;;;;;;;5.03;100.00;101529.38;5077225;28;20026;-58
2023/12/20 02:24:53;;;;;;;16.33;4.50;;;;;;;4.93;100.00;101534.91;5096568;28;20402;-58
2023/12/20 02:27:19;;;;;;;23.17;4.88;;;;;;;4.99;100.00;101531.25;5114068;27;20401;-58
2023/12/20 02:29:48;;;;;;;14.88;4.20;;;;;;;4.97;100.00;101533.94;5093228;28;20019;-57
2023/12/20 02:32:13;;;;;;;11.57;5.03;;;;;;;4.97;100.00;101522.50;5077150;28;20488;-58
2023/12/20 02:34:38;;;;;;;14.77;4.68;;;;;;;5.04;100.00;101524.06;5111699;27;20020;-57
2023/12/20 02:37:04;;;;;;;13.38;4.63;;;;;;;4.93;100.00;101523.50;5099584;27;20397;-58
2023/12/20 02:39:30;;;;;;;13.63;4.63;;;;;;;4.88;100.00;101523.66;5112831;27;20027;-58
2023/12/20 02:41:58;;;;;;;21.20;4.43;;;;;;;4.84;100.00;101527.28;5077956;27;20031;-58
2023/12/20 02:44:23;;;;;;;12.93;4.00;;;;;;;4.88;100.00;101534.22;5112646;27;20027;-58
2023/12/20 02:46:48;;;;;;;15.45;4.70;;;;;;;4.87;100.00;101529.81;5112066;27;20015;-58
2023/12/20 02:49:14;;;;;;;19.58;4.65;;;;;;;4.87;100.00;101529.81;5094542;27;20473;-58
2023/12/20 02:51:39;;;;;;;13.20;3.65;;;;;;;4.91;100.00;101534.13;5111744;28;20036;-58
2023/12/20 02:54:05;;;;;;;23.65;5.10;;;;;;;4.88;100.00;101525.41;5093083;28;20106;-58
2023/12/20 02:56:32;;;;;;;9.02;4.20;;;;;;;4.95;100.00;101529.63;5093254;28;20403;-58
2023/12/20 02:58:57;;;;;;;16.48;4.47;;;;;;;5.03;100.00;101529.38;5094110;28;20031;-60
2023/12/20 03:01:22;;;;;;;13.07;4.95;;;;;;;4.96;100.00;101526.91;5111473;27;20028;-58
2023/12/20 03:03:48;;;;;;;16.58;3.67;;;;;;;4.98;100.00;101526.88;5093205;28;20098;-57
2023/12/20 03:06:17;;;;;;;10.73;4.90;;;;;;;4.95;100.00;101517.28;5094483;27;20060;-58
2023/12/20 03:08:43;;;;;;;17.63;4.72;;;;;;;4.95;100.00;101519.94;5093453;28;20024;-58
2023/12/20 03:11:10;;;;;;;13.43;4.82;;;;;;;4.92;100.00;101513.88;5093295;28;20469;-58
2023/12/20 03:13:36;;;;;;;12.85;3.67;;;;;;;4.83;100.00;101522.94;5093204;28;20106;-58
2023/12/20 03:16:07;;;;;;;13.35;5.93;;;;;;;4.93;100.00;101508.56;5113145;27;20110;-58
2023/12/20 03:18:33;;;;;;;14.40;4.78;;;;;;;4.82;100.00;101517.69;5112700;27;20027;-58
2023/12/20 03:20:58;;;;;;;17.92;4.38;;;;;;;4.95;100.00;101513.81;5093210;28;20073;-58
2023/12/20 03:23:23;;;;;;;14.57;4.93;;;;;;;4.91;100.00;101506.88;5094341;28;20390;-58
2023/12/20 03:25:49;;;;;;;13.68;4.18;;;;;;;4.73;100.00;101503.84;5111463;28;20031;-58
2023/12/20 03:28:15;;;;;;;10.02;4.15;;;;;;;4.86;100.00;101507.03;5112204;27;20038;-58
2023/12/20 03:30:41;;;;;;;16.45;6.13;;;;;;;4.71;100.00;101497.78;5113018;28;20543;-58
2023/12/20 03:33:07;;;;;;;14.50;4.43;;;;;;;4.79;100.00;101508.09;5092751;28;20058;-57
2023/12/20 03:35:32;;;;;;;7.93;4.38;;;;;;;4.82;100.00;101500.09;5094026;28;20015;-57
2023/12/20 03:38:00;;;;;;;20.15;5.13;;;;;;;4.86;100.00;101493.00;5110300;28;20413;-57
2023/12/20 03:40:25;;;;;;;9.93;3.80;;;;;;;4.78;100.00;101478.25;5114306;28;20031;-57
2023/12/20 03:42:50;;;;;;;9.60;4.63;;;;;;;4.98;100.00;101485.56;5110654;28;20124;-57
2023/12/20 03:45:18;;;;;;;11.50;4.63;;;;;;;4.86;100.00;101485.94;5112293;28;20042;-57
2023/12/20 03:47:43;;;;;;;14.10;4.65;;;;;;;4.88;100.00;101492.03;5112898;28;20439;-57
2023/12/20 03:50:09;;;;;;;14.27;4.80;;;;;;;4.94;100.00;101489.22;5111094;28;20081;-57
2023/12/20 03:52:34;;;;;;;12.52;4.22;;;;;;;4.92;100.00;101484.91;5092496;28;20053;-57
2023/12/20 03:55:00;;;;;;;29.80;6.50;;;;;;;4.97;100.00;101496.16;5110270;28;20486;-57
2023/12/20 03:57:25;;;;;;;23.00;5.75;;;;;;;5.00;100.00;101507.50;5093976;28;20070;-57
2023/12/20 03:59:50;;;;;;;19.98;4.97;;;;;;;5.16;100.00;101505.25;5110842;28;20030;-57
2023/12/20 04:02:17;;;;;;;11.55;4.82;;;;;;;5.07;100.00;101505.53;5120337;28;20046;-57
2023/12/20 04:04:43;;;;;;;20.95;4.97;;;;;;;5.08;100.00;101507.25;5112433;28;20034;-57
2023/12/20 04:07:08;;;;;;;24.95;5.97;;;;;;;5.09;100.00;101502.81;5092664;28;20478;-57
2023/12/20 04:09:34;;;;;;;17.38;6.45;;;;;;;5.11;100.00;101499.25;5092149;28;20023;-57
2023/12/20 04:11:59;;;;;;;18.05;5.53;;;;;;;5.15;100.00;101498.25;5110692;28;20038;-57
2023/12/20 04:14:24;;;;;;;16.80;4.20;;;;;;;5.29;100.00;101499.59;5095515;28;20102;-57
2023/12/20 04:16:50;;;;;;;19.00;4.88;;;;;;;5.19;100.00;101499.88;5110357;28;20392;-57
2023/12/20 04:19:15;;;;;;;20.50;5.20;;;;;;;5.21;100.00;101505.13;5092589;28;20070;-57
2023/12/20 04:21:41;;;;;;;14.85;5.28;;;;;;;5.29;100.00;101504.88;5110922;28;20034;-57
2023/12/20 04:24:08;;;;;;;17.00;5.18;;;;;;;5.30;100.00;101506.63;5093965;28;20027;-57
2023/12/20 04:26:36;;;;;;;19.65;6.20;;;;;;;5.25;100.00;101496.19;5093954;27;20164;-57
2023/12/20 04:29:05;;;;;;;18.77;6.15;;;;;;;5.26;100.00;101490.00;5114643;27;20030;-57
2023/12/20 04:31:30;;;;;;;19.60;6.32;;;;;;;5.30;100.00;101498.72;5096324;28;20023;-57
2023/12/20 04:33:55;;;;;;;19.05;5.25;;;;;;;5.29;100.00;101503.09;5114533;28;20023;-57
2023/12/20 04:36:21;;;;;;;16.92;5.63;;;;;;;5.29;100.00;101504.88;5097195;28;20118;-57
2023/12/20 04:38:49;;;;;;;18.60;4.53;;;;;;;5.34;100.00;101506.47;5114069;27;20025;-57
2023/12/20 04:41:18;;;;;;;19.52;4.78;;;;;;;5.46;100.00;101497.31;5114265;28;20529;-57
2023/12/20 04:43:44;;;;;;;21.55;4.53;;;;;;;5.42;100.00;101504.47;5096154;28;20034;-57
2023/12/20 04:46:09;;;;;;;22.20;5.75;;;;;;;5.43;100.00;101511.44;5115554;27;20024;-57
2023/12/20 04:48:34;;;;;;;15.60;4.82;;;;;;;5.42;100.00;101511.50;5098494;28;20023;-57
2023/12/20 04:51:02;;;;;;;20.70;5.15;;;;;;;5.42;100.00;101508.88;5114202;27;20059;-57
2023/12/20 04:53:30;;;;;;;17.17;6.03;;;;;;;5.40;100.00;101511.53;5096566;28;20043;-57
2023/12/20 04:55:55;;;;;;;15.90;4.65;;;;;;;5.32;100.00;101495.09;5095272;28;20019;-57
2023/12/20 04:58:21;;;;;;;16.05;4.53;;;;;;;5.41;100.00;101510.66;5113625;27;20438;-57
2023/12/20 05:00:46;;;;;;;17.88;5.25;;;;;;;5.40;100.00;101519.47;5095053;27;20018;-57
2023/12/20 05:03:12;;;;;;;30.35;5.95;;;;;;;5.41;100.00;101508.03;5098416;28;20030;-57
2023/12/20 05:05:37;;;;;;;12.13;4.80;;;;;;;5.40;100.00;101492.22;5096518;28;20030;-57
2023/12/20 05:08:05;;;;;;;6.80;3.65;;;;;;;5.55;100.00;101493.50;5094659;28;20122;-57
2023/12/20 05:10:34;;;;;;;14.70;3.88;;;;;;;5.49;100.00;101484.00;5113362;28;20027;-57
2023/12/20 05:12:59;;;;;;;24.08;5.13;;;;;;;5.44;100.00;101491.22;5094974;28;20027;-57
2023/12/20 05:15:24;;;;;;;16.38;4.43;;;;;;;5.45;100.00;101485.03;5097830;28;20035;-57
2023/12/20 05:17:50;;;;;;;24.30;4.68;;;;;;;5.38;100.00;101475.56;5099306;28;20051;-58
2023/12/20 05:20:15;;;;;;;10.93;5.50;;;;;;;5.43;100.00;101484.22;5114513;27;20440;-57
2023/12/20 05:22:44;;;;;;;14.18;5.18;;;;;;;5.42;100.00;101480.72;5097078;27;20030;-57
2023/12/20 05:25:10;;;;;;;25.90;5.43;;;;;;;5.43;100.00;101485.06;5094638;28;20033;-58
2023/12/20 05:27:35;;;;;;;12.52;5.28;;;;;;;5.44;100.00;101492.09;5097675;28;20015;-57
2023/12/20 05:30:01;;;;;;;16.58;4.63;;;;;;;5.45;100.00;101487.69;5112871;28;20023;-57
2023/12/20 05:32:26;;;;;;;11.30;3.88;;;;;;;5.60;100.00;101481.91;5117893;27;20432;-57
2023/12/20 05:34:51;;;;;;;17.27;4.85;;;;;;;5.47;100.00;101492.00;5083364;27;20037;-57
2023/12/20 05:37:17;;;;;;;12.05;4.82;;;;;;;5.44;100.00;101492.09;5095523;28;20501;-57
2023/12/20 05:39:45;;;;;;;27.10;6.28;;;;;;;5.43;100.00;101494.75;5117237;27;20062;-57
2023/12/20 05:42:13;;;;;;;27.40;5.28;;;;;;;5.39;100.00;101478.19;5113199;27;20023;-57
2023/12/20 05:44:41;;;;;;;18.75;4.90;;;;;;;5.46;100.00;101482.34;5113061;28;20027;-57
2023/12/20 05:47:06;;;;;;;17.02;4.65;;;;;;;5.35;100.00;101476.53;5094712;28;20023;-57
2023/12/20 05:49:31;;;;;;;17.38;5.88;;;;;;;5.40;100.00;101493.09;5113388;28;20115;-57
2023/12/20 05:51:57;;;;;;;20.75;5.03;;;;;;;5.44;100.00;101491.22;5114017;27;20466;-57
2023/12/20 05:54:22;;;;;;;19.60;5.05;;;;;;;5.34;100.00;101503.81;5114417;27;20019;-57
2023/12/20 05:56:48;;;;;;;17.08;4.35;;;;;;;5.35;100.00;101505.53;5094846;28;20028;-57
2023/12/20 05:59:13;;;;;;;12.25;4.75;;;;;;;5.35;100.00;101502.91;5095512;27;20122;-57
2023/12/20 06:01:39;;;;;;;16.80;4.90;;;;;;;5.23;100.00;101506.81;5094852;28;20069;-57
2023/12/20 06:04:04;;;;;;;13.65;4.43;;;;;;;5.13;100.00;101505.34;5094250;28;20038;-57
2023/12/20 06:06:30;;;;;;;14.45;5.45;;;;;;;5.16;100.00;101517.56;5113572;27;20027;-57
2023/12/20 06:08:56;;;;;;;16.83;4.97;;;;;;;5.16;100.00;101523.72;5093479;28;20486;-57
2023/12/20 06:11:23;;;;;;;14.50;5.18;;;;;;;5.06;100.00;101514.34;5094224;28;20027;-57
2023/12/20 06:13:51;;;;;;;13.20;4.72;;;;;;;5.11;100.00;101522.97;5094015;28;20546;-57
2023/12/20 06:16:18;;;;;;;12.32;5.63;;;;;;;5.08;100.00;101504.59;5112562;27;20146;-57
2023/12/20 06:18:43;;;;;;;23.77;5.47;;;;;;;5.08;100.00;101512.50;5093993;28;20553;-58
2023/12/20 06:21:12;;;;;;;18.35;5.40;;;;;;;5.05;100.00;101509.97;5106974;27;20035;-57
2023/12/20 06:23:38;;;;;;;15.82;5.38;;;;;;;5.03;100.00;101503.00;5112691;27;20028;-57
2023/12/20 06:26:03;;;;;;;13.23;4.72;;;;;;;5.00;100.00;101511.91;5113249;27;20035;-57
2023/12/20 06:28:28;;;;;;;20.08;6.40;;;;;;;5.01;100.00;101506.56;5095105;28;20035;-57
2023/12/20 06:30:54;;;;;;;15.50;5.10;;;;;;;4.93;100.00;101507.69;5093649;28;20026;-57
2023/12/20 06:33:22;;;;;;;21.27;4.63;;;;;;;4.95;100.00;101506.75;5112296;27;20023;-58
2023/12/20 06:35:47;;;;;;;17.73;5.78;;;;;;;4.87;100.00;101502.59;5111770;28;20047;-58
2023/12/20 06:38:12;;;;;;;18.55;4.90;;;;;;;5.02;100.00;101504.78;5111416;27;20529;-58
2023/12/20 06:40:38;;;;;;;18.25;5.55;;;;;;;4.88;100.00;101507.84;5094288;28;20081;-58
2023/12/20 06:43:03;;;;;;;19.70;6.55;;;;;;;4.86;100.00;101503.53;5096513;28;20086;-58
2023/12/20 06:45:29;;;;;;;22.65;5.78;;;;;;;4.81;100.00;101503.66;5094016;28;20026;-58
2023/12/20 06:47:54;;;;;;;17.65;5.50;;;;;;;4.94;100.00;101496.25;5112157;28;20114;-58
2023/12/20 06:50:20;;;;;;;7.78;4.30;;;;;;;4.91;100.00;101505.13;5092563;28;20466;-58
2023/12/20 06:52:48;;;;;;;10.82;5.47;;;;;;;4.94;100.00;101509.41;5113633;27;20427;-58
2023/12/20 06:55:13;;;;;;;15.82;5.07;;;;;;;4.89;100.00;101500.81;5093676;28;20114;-58
2023/12/20 06:57:39;;;;;;;18.38;5.82;;;;;;;4.95;100.00;101490.94;5093897;28;20102;-58
2023/12/20 07:00:05;;;;;;;14.13;5.28;;;;;;;4.92;100.00;101493.66;5112587;27;20550;-57
2023/12/20 07:02:31;;;;;;;16.73;5.25;;;;;;;4.92;100.00;101503.34;5100607;28;20450;-58
2023/12/20 07:04:57;;;;;;;15.45;5.82;;;;;;;4.90;100.00;101498.09;5110891;28;20102;-58
2023/12/20 07:07:24;;;;;;;17.27;5.05;;;;;;;4.95;100.00;101498.00;5092824;28;20079;-58
2023/12/20 07:09:49;;;;;;;14.52;4.80;;;;;;;4.90;100.00;101500.75;5110850;28;20526;-58
2023/12/20 07:12:15;;;;;;;12.90;5.63;;;;;;;4.89;100.00;101501.66;5092883;28;20031;-57
2023/12/20 07:14:40;;;;;;;17.63;5.45;;;;;;;4.86;100.00;101498.25;5093048;28;20024;-57
2023/12/20 07:17:11;;;;;;;21.48;5.93;;;;;;;4.91;100.00;101493.69;5111185;28;20063;-57
2023/12/20 07:19:37;;;;;;;12.15;4.50;;;;;;;4.94;100.00;101506.78;5110761;27;20477;-57
2023/12/20 07:22:04;;;;;;;24.67;5.78;;;;;;;4.93;100.00;101498.00;5112724;28;20016;-57
2023/12/20 07:24:29;;;;;;;19.60;5.13;;;;;;;5.03;100.00;101497.75;5114347;27;20517;-57
2023/12/20 07:26:54;;;;;;;12.65;5.32;;;;;;;5.09;100.00;101492.28;5092682;27;20051;-57
2023/12/20 07:29:20;;;;;;;17.70;5.55;;;;;;;4.98;100.00;101500.53;5110656;28;20382;-57
2023/12/20 07:31:45;;;;;;;20.63;5.07;;;;;;;4.92;100.00;101505.97;5096206;28;20070;-58
2023/12/20 07:34:10;;;;;;;17.65;6.15;;;;;;;4.99;100.00;101511.00;5111334;28;20034;-58
2023/12/20 07:36:36;;;;;;;23.63;6.38;;;;;;;4.99;100.00;101503.09;5110752;28;20035;-58
2023/12/20 07:39:01;;;;;;;11.82;4.57;;;;;;;4.96;100.00;101491.78;5114061;28;20105;-58
2023/12/20 07:41:26;;;;;;;21.88;6.03;;;;;;;4.97;100.00;101499.66;5091208;28;20017;-58
2023/12/20 07:43:53;;;;;;;29.27;5.80;;;;;;;4.99;100.00;101503.09;5094068;28;20031;-57
2023/12/20 07:46:22;;;;;;;7.38;3.38;;;;;;;5.01;100.00;101503.06;5112826;28;20043;-57
2023/12/20 07:48:48;;;;;;;22.17;4.82;;;;;;;5.03;100.00;101487.19;5112597;28;20020;-57
2023/12/20 07:51:13;;;;;;;18.35;4.75;;;;;;;5.07;100.00;101492.34;5096123;28;20398;-57
2023/12/20 07:53:39;;;;;;;20.98;5.43;;;;;;;5.07;100.00;101481.81;5114008;28;20103;-57
2023/12/20 07:56:17;;;;;;;17.75;5.82;;;;;;;5.08;100.00;101499.34;5095461;28;20447;-57
2023/12/20 07:58:43;;;;;;;17.80;5.03;;;;;;;5.09;100.00;101503.72;5110782;28;20310;-57
2023/12/20 08:01:10;;;;;;;19.60;5.35;;;;;;;5.18;100.00;101510.50;5095939;28;20110;-57
2023/12/20 08:03:35;;;;;;;13.10;4.90;;;;;;;5.17;100.00;101506.97;5101673;27;20023;-57
2023/12/20 08:06:03;;;;;;;9.25;4.38;;;;;;;5.18;100.00;101507.84;5131012;27;20071;-58
2023/12/20 08:08:29;;;;;;;14.80;4.38;;;;;;;5.29;100.00;101518.06;5093247;27;20026;-57
2023/12/20 08:10:54;;;;;;;19.50;4.85;;;;;;;5.16;100.00;101507.88;5097695;28;20391;-57
2023/12/20 08:13:19;;;;;;;7.95;3.92;;;;;;;5.49;100.00;101515.69;5096805;28;20061;-57
2023/12/20 08:15:47;;;;;;;22.92;6.05;;;;;;;5.23;100.00;101513.84;5115107;28;20428;-57
2023/12/20 08:18:13;;;;;;;15.32;5.53;;;;;;;5.35;100.00;101520.50;5117408;27;20019;-57
2023/12/20 08:20:38;;;;;;;21.73;6.30;;;;;;;5.31;100.00;101510.97;5096711;28;20030;-57
2023/12/20 08:23:03;;;;;;;13.27;4.65;;;;;;;5.25;100.00;101504.09;5114443;27;20084;-57
2023/12/20 08:25:29;;;;;;;25.48;5.97;;;;;;;5.26;100.00;101518.16;5115174;28;20036;-57
2023/12/20 08:27:56;;;;;;;13.20;4.75;;;;;;;5.27;100.00;101510.22;5119293;27;20019;-57
2023/12/20 08:30:25;;;;;;;16.42;5.35;;;;;;;5.39;100.00;101523.03;5114061;27;20032;-57
2023/12/20 08:32:50;;;;;;;14.25;4.05;;;;;;;5.44;100.00;101517.59;5114539;28;20098;-57
2023/12/20 08:35:16;;;;;;;15.95;5.32;;;;;;;5.45;100.00;101516.69;5096893;27;20038;-57
2023/12/20 08:37:41;;;;;;;17.40;5.82;;;;;;;5.42;100.00;101528.19;5096978;28;20485;-57
2023/12/20 08:40:07;;;;;;;21.55;5.45;;;;;;;5.55;100.00;101539.22;5114317;28;20031;-57
2023/12/20 08:42:32;;;;;;;21.67;5.45;;;;;;;5.58;100.00;101520.66;5114473;28;20023;-57
2023/12/20 08:44:58;;;;;;;17.02;5.13;;;;;;;5.62;100.00;101514.41;5114574;28;20066;-57
2023/12/20 08:47:24;;;;;;;16.45;4.90;;;;;;;5.59;100.00;101509.22;5095570;28;20020;-57
2023/12/20 08:49:49;;;;;;;20.23;4.97;;;;;;;5.60;100.00;101503.00;5079058;28;20080;-57
2023/12/20 08:52:17;;;;;;;11.15;5.25;;;;;;;5.66;100.00;101504.59;5096222;28;20024;-57
2023/12/20 08:54:42;;;;;;;19.70;4.57;;;;;;;5.77;100.00;101497.19;5113949;28;20019;-57
2023/12/20 08:57:08;;;;;;;20.15;5.80;;;;;;;5.70;100.00;101500.94;5114300;28;20038;-57
2023/12/20 08:59:33;;;;;;;17.38;5.03;;;;;;;5.63;100.00;101480.94;5113751;28;20492;-57
2023/12/20 09:01:59;;;;;;;13.05;4.75;;;;;;;5.79;100.00;101486.56;5095289;28;20029;-57
2023/12/20 09:04:27;;;;;;;13.43;5.35;;;;;;;5.68;100.00;101493.09;5095474;28;20316;-57
2023/12/20 09:06:52;;;;;;;21.02;5.28;;;;;;;5.74;100.00;101497.31;5095454;28;20026;-57
2023/12/20 09:09:18;;;;;;;13.10;5.40;;;;;;;5.69;100.00;101505.34;5095447;28;20031;-57
2023/12/20 09:11:48;;;;;;;24.23;4.97;;;;;;;5.66;100.00;101492.25;5110334;28;20023;-57
2023/12/20 09:14:13;;;;;;;17.55;4.72;;;;;;;5.69;100.00;101497.44;5113891;28;20056;-57
2023/12/20 09:16:39;;;;;;;19.50;4.43;;;;;;;5.73;100.00;101510.53;5095283;28;20055;-57
2023/12/20 09:19:04;;;;;;;29.25;5.40;;;;;;;5.72;100.00;101509.69;5113343;28;20034;-58
2023/12/20 09:21:30;;;;;;;14.15;4.93;;;;;;;5.76;100.00;101502.50;5095380;28;20023;-57
2023/12/20 09:23:55;;;;;;;17.85;4.55;;;;;;;5.69;100.00;101493.94;5094875;28;20027;-57
2023/12/20 09:26:20;;;;;;;16.50;4.45;;;;;;;5.73;100.00;101506.09;5095727;28;20054;-57
2023/12/20 09:28:46;;;;;;;17.60;3.95;;;;;;;5.84;100.00;101505.78;5113158;28;20055;-57
2023/12/20 09:31:14;;;;;;;14.68;4.47;;;;;;;5.79;100.00;101512.97;5113353;28;20020;-57
2023/12/20 09:33:40;;;;;;;25.98;5.82;;;;;;;5.75;100.00;101503.44;5112979;28;20024;-57
2023/12/20 09:36:05;;;;;;;15.98;5.13;;;;;;;5.74;100.00;101502.59;5113481;28;20394;-57
2023/12/20 09:38:33;;;;;;;22.88;5.38;;;;;;;5.78;100.00;101498.91;5111620;28;20079;-58
2023/12/20 09:40:59;;;;;;;9.20;4.47;;;;;;;5.82;100.00;101491.75;5113564;28;20359;-58
2023/12/20 09:43:25;;;;;;;9.90;4.80;;;;;;;5.82;100.00;101492.59;5094240;28;20069;-57
2023/12/20 09:45:53;;;;;;;14.65;5.10;;;;;;;5.89;100.00;101491.50;5095980;28;20050;-58
2023/12/20 09:48:19;;;;;;;14.02;4.82;;;;;;;6.01;100.00;101494.69;5113986;28;20047;-57
2023/12/20 09:50:45;;;;;;;12.75;3.92;;;;;;;5.99;100.00;101499.16;5095739;28;20046;-57
2023/12/20 09:53:15;;;;;;;22.45;4.97;;;;;;;5.92;100.00;101499.31;5095489;28;20476;-58
2023/12/20 09:55:42;;;;;;;17.52;4.93;;;;;;;5.90;100.00;101492.38;5114186;28;20491;-57
2023/12/20 09:58:08;;;;;;;19.15;4.72;;;;;;;5.92;100.00;101488.78;5130000;27;20016;-57
2023/12/20 10:00:35;;;;;;;10.98;4.28;;;;;;;5.94;100.00;101496.66;5095352;28;20482;-57
2023/12/20 10:03:01;;;;;;;18.75;5.88;;;;;;;5.95;100.00;101494.91;5113703;28;20019;-57
2023/12/20 10:05:31;;;;;;;13.65;4.85;;;;;;;6.11;100.00;101489.03;5113904;28;20020;-57
2023/12/20 10:07:58;;;;;;;10.35;4.30;;;;;;;6.20;100.00;101492.28;5094840;28;20153;-57
2023/12/20 10:10:23;;;;;;;14.50;4.80;;;;;;;6.08;100.00;101491.78;5113574;28;20027;-57
2023/12/20 10:13:11;;;;;;;15.68;4.07;;;;;;;6.12;100.00;101497.84;5095110;28;20028;-57
2023/12/20 10:15:37;;;;;;;15.80;4.22;;;;;;;6.12;100.00;101501.34;5113861;28;20016;-57
2023/12/20 10:18:03;;;;;;;13.45;4.18;;;;;;;6.08;100.00;101481.22;5095224;28;20043;-57
2023/12/20 10:20:30;;;;;;;18.40;6.22;;;;;;;6.11;100.00;101473.19;5113621;28;20349;-57
2023/12/20 10:22:57;;;;;;;19.08;4.32;;;;;;;6.14;100.00;101472.22;5112775;28;20470;-57
2023/12/20 10:25:22;;;;;;;14.05;5.25;;;;;;;6.17;100.00;101482.69;5095228;28;20055;-57
2023/12/20 10:27:50;;;;;;;13.10;4.53;;;;;;;6.18;100.00;101479.13;5113051;28;20555;-57
2023/12/20 10:30:15;;;;;;;14.43;5.00;;;;;;;6.24;100.00;101471.00;5113387;28;20024;-57
2023/12/20 10:32:41;;;;;;;16.33;4.63;;;;;;;6.26;100.00;101470.94;5095066;28;20072;-57
2023/12/20 10:35:07;;;;;;;12.85;4.13;;;;;;;6.20;100.00;101479.06;5094990;28;20023;-58
2023/12/20 10:37:37;;;;;;;17.63;5.60;;;;;;;6.29;100.00;101482.25;5113029;28;20043;-58
2023/12/20 10:40:03;;;;;;;;;;;;;;;6.32;100.00;101476.00;5112897;28;20110;-57
2023/12/20 10:42:30;;;;;;;14.23;4.18;;;;;;;6.38;100.00;101470.50;5094655;28;19911;-57
2023/12/20 10:44:56;;;;;;;18.13;5.00;;;;;;;6.34;100.00;101479.47;5113009;28;20051;-58
2023/12/20 10:47:24;;;;;;;17.90;4.55;;;;;;;6.39;100.00;101471.38;5094820;28;20012;-57
2023/12/20 10:49:52;;;;;;;24.73;5.97;;;;;;;6.38;100.00;101470.50;5112844;28;20028;-57
2023/12/20 10:52:17;;;;;;;15.77;4.30;;;;;;;6.36;100.00;101467.06;5113017;28;20015;-58
2023/12/20 10:54:44;;;;;;;18.00;4.80;;;;;;;6.45;100.00;101457.94;5112258;28;20389;-57
2023/12/20 10:57:09;;;;;;;14.60;4.75;;;;;;;6.42;100.00;101468.63;5112646;28;20099;-57
2023/12/20 10:59:37;;;;;;;23.67;6.80;;;;;;;6.41;100.00;101458.97;5112962;28;20058;-57
2023/12/20 11:02:06;;;;;;;21.75;4.57;;;;;;;6.41;100.00;101453.66;5112762;28;20027;-58
2023/12/20 11:04:57;;;;;;;19.17;5.70;;;;;;;6.46;100.00;101455.22;5128176;27;20028;-57
2023/12/20 11:07:29;;;;;;;14.32;4.80;;;;;;;6.42;100.00;101440.41;5112633;28;20071;-58
2023/12/20 11:10:01;;;;;;;15.85;4.43;;;;;;;6.40;100.00;101444.03;5112087;28;20039;-57
2023/12/20 11:12:52;;;;;;;13.63;4.65;;;;;;;6.40;100.00;101434.31;5112401;28;20023;-58
2023/12/20 11:15:18;;;;;;;20.20;5.75;;;;;;;6.35;100.00;101429.22;5094138;28;20122;-57